Time;durP1;ratioP1;P1;durP2;ratioP2;P2;SDS_P1;SDS_P2;PMS_P1;PMS_P2;Temp;Humidity;BMP_temperature;BMP_pressure;BME280_temperature;BME280_humidity;BME280_pressure;Samples;Min_cycle;Max_cycle;Signal;HPM_P1;HPM_P2
2022/01/24 00:00:00;;;;;;;0.68;0.68;;;6.60;99.90;;;;;;4442259;32;20073;-68
2022/01/24 00:02:28;;;;;;;1.42;0.80;;;6.70;99.90;;;;;;4440740;32;20098;-68
2022/01/24 00:04:54;;;;;;;1.65;1.02;;;6.80;99.90;;;;;;4442003;32;20073;-67
2022/01/24 00:07:22;;;;;;;0.80;0.80;;;6.80;99.90;;;;;;4440416;32;20178;-69
2022/01/24 00:09:49;;;;;;;2.78;1.20;;;6.70;99.90;;;;;;4441291;32;20074;-69
2022/01/24 00:12:25;;;;;;;1.85;1.40;;;6.80;99.90;;;;;;4436967;32;20053;-68
2022/01/24 00:15:04;;;;;;;10.63;1.40;;;6.80;99.90;;;;;;4443048;32;20097;-69
2022/01/24 00:26:58;;;;;;;0.95;0.90;;;6.80;99.90;;;;;;4427063;32;20600;-69
2022/01/24 00:28:12;;;;;;;2.08;0.90;;;6.90;99.90;;;;;;4422799;32;20092;-68
2022/01/24 00:30:38;;;;;;;1.17;0.85;;;6.90;99.90;;;;;;4441297;32;20139;-68
2022/01/24 00:33:04;;;;;;;1.15;1.05;;;7.00;99.90;;;;;;4439638;32;20148;-68
2022/01/24 00:35:29;;;;;;;2.35;1.05;;;7.00;99.90;;;;;;4442908;32;20482;-68
2022/01/24 00:37:59;;;;;;;0.50;0.50;;;7.10;99.90;;;;;;4442194;32;20069;-68
2022/01/24 00:40:27;;;;;;;0.63;0.63;;;7.10;99.90;;;;;;4440168;32;20068;-68
2022/01/24 00:42:56;;;;;;;1.67;0.90;;;7.10;99.90;;;;;;4442729;32;20056;-68
2022/01/24 00:45:32;;;;;;;0.62;0.62;;;7.10;99.90;;;;;;4441103;32;20089;-68
2022/01/24 00:53:12;;;;;;;0.62;0.62;;;7.20;99.90;;;;;;4440825;32;20076;-68
2022/01/24 00:54:48;;;;;;;1.12;0.52;;;7.10;99.90;;;;;;4429160;32;20068;-68
2022/01/24 00:55:59;;;;;;;0.73;0.45;;;7.10;99.90;;;;;;4429175;32;20081;-68
2022/01/24 00:58:24;;;;;;;7.25;1.10;;;7.00;99.90;;;;;;4440961;32;20119;-68
2022/01/24 01:00:50;;;;;;;1.27;1.02;;;7.10;99.90;;;;;;4441388;32;20081;-68
2022/01/24 01:03:17;;;;;;;1.42;1.33;;;7.00;99.90;;;;;;4440737;32;20102;-68
2022/01/24 01:06:14;;;;;;;0.75;0.75;;;7.10;99.90;;;;;;4441420;32;20517;-68
2022/01/24 01:18:18;;;;;;;0.60;0.60;;;7.00;99.90;;;;;;4439525;32;20085;-68
2022/01/24 01:19:31;;;;;;;4.35;1.20;;;7.00;99.90;;;;;;4439808;32;20072;-68
2022/01/24 01:21:57;;;;;;;0.40;0.40;;;7.00;99.90;;;;;;4440335;32;20131;-68
2022/01/24 01:24:24;;;;;;;0.50;0.50;;;7.10;99.90;;;;;;4438953;32;20081;-68
2022/01/24 01:26:55;;;;;;;0.82;0.73;;;7.00;99.90;;;;;;4441380;32;20066;-68
2022/01/24 01:29:26;;;;;;;1.65;0.80;;;7.00;99.90;;;;;;4441613;32;20062;-68
2022/01/24 01:32:16;;;;;;;;;;;7.00;99.90;;;;;;4442528;32;20110;-68
2022/01/24 01:35:02;;;;;;;0.30;0.30;;;7.00;99.90;;;;;;4438864;32;20326;-68
2022/01/24 01:37:46;;;;;;;2.60;1.15;;;7.00;99.90;;;;;;4438836;32;20109;-67
2022/01/24 01:52:24;;;;;;;1.98;0.82;;;7.00;99.90;;;;;;4437785;32;20057;-68
2022/01/24 01:52:37;;;;;;;0.50;0.50;;;6.90;99.90;;;;;;4439059;32;20121;-68
2022/01/24 01:54:11;;;;;;;0.88;0.88;;;7.00;99.90;;;;;;4436929;32;20114;-68
2022/01/24 01:56:37;;;;;;;0.60;0.60;;;7.00;99.90;;;;;;4440600;32;20135;-68
2022/01/24 01:59:03;;;;;;;2.90;1.02;;;6.90;99.90;;;;;;4440537;32;20068;-68
2022/01/24 02:01:28;;;;;;;0.73;0.73;;;7.00;99.90;;;;;;4441203;32;20466;-68
2022/01/24 02:03:55;;;;;;;0.50;0.50;;;7.00;99.90;;;;;;4436659;32;20076;-68
2022/01/24 02:06:21;;;;;;;0.70;0.70;;;7.00;99.90;;;;;;4441809;32;20163;-68
2022/01/24 02:08:47;;;;;;;2.10;0.93;;;7.00;99.90;;;;;;4441391;32;20069;-68
2022/01/24 02:11:16;;;;;;;0.37;0.37;;;7.10;99.90;;;;;;4441774;32;20096;-68
2022/01/24 02:13:41;;;;;;;0.60;0.60;;;7.00;99.90;;;;;;4441049;32;20085;-68
2022/01/24 02:16:19;;;;;;;0.57;0.57;;;7.00;99.90;;;;;;4441529;32;20395;-68
2022/01/24 02:18:53;;;;;;;0.62;0.62;;;7.00;99.90;;;;;;4440738;32;20116;-68
2022/01/24 02:21:41;;;;;;;0.60;0.60;;;7.00;99.90;;;;;;4437753;32;20085;-68
2022/01/24 02:24:08;;;;;;;0.30;0.30;;;7.00;99.90;;;;;;4437227;32;20077;-68
2022/01/24 02:26:34;;;;;;;0.88;0.77;;;7.00;99.90;;;;;;4440460;32;20073;-68
2022/01/24 02:31:45;;;;;;;0.40;0.40;;;7.10;99.90;;;;;;4441244;32;20507;-67
2022/01/24 02:34:36;;;;;;;0.40;0.40;;;7.10;99.90;;;;;;4441985;32;20093;-67
2022/01/24 02:37:03;;;;;;;;;;;7.10;99.90;;;;;;4432975;32;20077;-67
2022/01/24 02:39:45;;;;;;;0.30;0.30;;;7.00;99.90;;;;;;4443367;32;19976;-67
2022/01/24 02:48:23;;;;;;;0.30;0.30;;;7.10;99.90;;;;;;4442490;32;20446;-67
2022/01/24 02:48:44;;;;;;;1.10;0.80;;;7.10;99.90;;;;;;4429566;32;20069;-67
2022/01/24 02:50:49;;;;;;;0.62;0.62;;;7.00;99.90;;;;;;4440753;32;20073;-67
2022/01/24 02:53:15;;;;;;;0.40;0.40;;;7.00;99.90;;;;;;4430448;32;20188;-67
2022/01/24 02:55:41;;;;;;;0.55;0.55;;;6.90;99.90;;;;;;4444181;32;20053;-67
2022/01/24 02:58:07;;;;;;;0.35;0.35;;;7.00;99.90;;;;;;4443251;32;20053;-67
2022/01/24 03:00:33;;;;;;;3.53;1.52;;;7.00;99.90;;;;;;4443869;32;20108;-67
2022/01/24 03:02:58;;;;;;;0.62;0.50;;;7.00;99.90;;;;;;4442578;32;20060;-67
2022/01/24 03:05:24;;;;;;;1.30;0.75;;;7.00;99.90;;;;;;4443818;32;20127;-67
2022/01/24 03:07:49;;;;;;;0.40;0.40;;;7.00;99.90;;;;;;4443528;32;20121;-67
2022/01/24 03:10:26;;;;;;;0.70;0.70;;;6.90;99.90;;;;;;4442943;32;20553;-67
2022/01/24 03:13:09;;;;;;;0.47;0.47;;;7.00;99.90;;;;;;4441658;32;20308;-67
2022/01/24 03:15:36;;;;;;;1.75;0.80;;;6.80;99.90;;;;;;4442935;32;20069;-67
2022/01/24 03:18:02;;;;;;;0.80;0.80;;;6.90;99.90;;;;;;4442329;32;20180;-67
2022/01/24 03:20:27;;;;;;;2.78;1.42;;;7.00;99.90;;;;;;4443412;32;20069;-67
2022/01/24 03:22:53;;;;;;;0.37;0.37;;;7.00;99.90;;;;;;4443437;32;20073;-67
2022/01/24 03:25:19;;;;;;;0.85;0.80;;;6.90;99.90;;;;;;4438378;32;20077;-67
2022/01/24 03:27:44;;;;;;;0.65;0.40;;;6.90;99.90;;;;;;4441010;32;20131;-67
2022/01/24 03:30:10;;;;;;;0.32;0.32;;;6.90;99.90;;;;;;4440649;32;20120;-68
2022/01/24 03:32:35;;;;;;;0.30;0.30;;;6.80;99.90;;;;;;4444387;32;20076;-67
2022/01/24 03:35:01;;;;;;;0.30;0.30;;;6.80;99.90;;;;;;4441512;32;20529;-67
2022/01/24 03:37:26;;;;;;;0.43;0.43;;;6.80;99.90;;;;;;4442564;32;20116;-67
2022/01/24 03:39:52;;;;;;;0.88;0.88;;;6.70;99.90;;;;;;4439271;32;20147;-67
2022/01/24 03:42:17;;;;;;;0.50;0.50;;;6.70;99.90;;;;;;4442253;32;20088;-67
2022/01/24 03:44:46;;;;;;;0.30;0.30;;;6.80;99.90;;;;;;4443903;32;20125;-67
2022/01/24 03:47:29;;;;;;;0.55;0.52;;;6.80;99.90;;;;;;4442212;32;20540;-67
2022/01/24 03:49:55;;;;;;;0.55;0.55;;;6.80;99.90;;;;;;4440908;32;20080;-67
2022/01/24 03:52:20;;;;;;;0.37;0.37;;;6.80;99.90;;;;;;4441271;32;20134;-68
2022/01/24 03:54:47;;;;;;;0.80;0.77;;;6.80;99.90;;;;;;4441462;32;20073;-68
2022/01/24 03:57:15;;;;;;;0.50;0.50;;;6.80;99.90;;;;;;4439031;32;20056;-68
2022/01/24 03:59:41;;;;;;;0.40;0.40;;;6.80;99.90;;;;;;4441226;32;20069;-68
2022/01/24 04:02:07;;;;;;;0.85;0.65;;;6.80;99.90;;;;;;4444049;32;20120;-68
2022/01/24 04:04:32;;;;;;;0.88;0.88;;;6.80;99.90;;;;;;4442293;32;20085;-68
2022/01/24 04:06:58;;;;;;;1.23;0.80;;;6.90;99.90;;;;;;4443570;32;20057;-68
2022/01/24 04:09:23;;;;;;;0.70;0.68;;;6.90;99.90;;;;;;4441024;32;20077;-68
2022/01/24 04:11:53;;;;;;;3.00;1.12;;;6.80;99.90;;;;;;4438832;32;20111;-68
2022/01/24 04:14:28;;;;;;;0.73;0.70;;;6.70;99.90;;;;;;4442086;32;20115;-68
2022/01/24 04:17:08;;;;;;;0.50;0.50;;;6.70;99.90;;;;;;4443531;32;20533;-68
2022/01/24 04:22:02;;;;;;;1.12;0.77;;;6.70;99.90;;;;;;4426472;32;20072;-68
2022/01/24 04:24:28;;;;;;;1.17;0.77;;;6.70;99.90;;;;;;4440010;32;20121;-68
2022/01/24 04:26:54;;;;;;;0.68;0.68;;;6.80;99.90;;;;;;4439824;32;20065;-68
2022/01/24 04:29:19;;;;;;;2.30;1.73;;;6.80;99.90;;;;;;4439236;32;20529;-68
2022/01/24 04:31:45;;;;;;;0.55;0.55;;;6.80;99.90;;;;;;4442701;32;20156;-68
2022/01/24 04:34:11;;;;;;;2.30;0.93;;;6.80;99.90;;;;;;4439474;32;106630;-68
2022/01/24 04:36:36;;;;;;;3.80;0.70;;;6.80;99.90;;;;;;4442311;32;20395;-68
2022/01/24 04:39:04;;;;;;;0.35;0.35;;;6.80;99.90;;;;;;4442734;32;20103;-67
2022/01/24 04:41:34;;;;;;;1.80;0.52;;;6.80;99.90;;;;;;4441054;32;20088;-68
2022/01/24 04:44:10;;;;;;;2.50;0.90;;;6.80;99.90;;;;;;4440600;32;20073;-68
2022/01/24 04:46:59;;;;;;;0.43;0.43;;;6.70;99.90;;;;;;4438797;32;20101;-68
2022/01/24 04:50:41;;;;;;;0.88;0.85;;;6.70;99.90;;;;;;4430286;32;20123;-68
2022/01/24 04:52:17;;;;;;;0.57;0.57;;;6.70;99.90;;;;;;4428126;32;20064;-68
2022/01/24 04:54:44;;;;;;;2.17;0.85;;;6.80;99.90;;;;;;4439267;32;20061;-67
2022/01/24 04:57:13;;;;;;;0.43;0.43;;;6.60;99.90;;;;;;4441662;32;20513;-69
2022/01/24 04:59:40;;;;;;;0.30;0.30;;;6.70;99.90;;;;;;4439712;32;20131;-68
2022/01/24 05:02:06;;;;;;;0.30;0.30;;;6.70;99.90;;;;;;4441649;32;20507;-68
2022/01/24 05:04:32;;;;;;;2.28;0.70;;;6.70;99.90;;;;;;4429365;32;20089;-68
2022/01/24 05:06:57;;;;;;;0.50;0.50;;;6.70;99.90;;;;;;4442669;32;20080;-68
2022/01/24 05:09:24;;;;;;;1.10;0.95;;;6.60;99.90;;;;;;4439279;32;20686;-68
2022/01/24 05:11:55;;;;;;;0.60;0.60;;;6.60;99.90;;;;;;4442292;32;20191;-68
2022/01/24 05:23:39;;;;;;;0.55;0.45;;;6.70;99.90;;;;;;4430948;32;20076;-68
2022/01/24 05:25:23;;;;;;;0.40;0.40;;;6.70;99.90;;;;;;4427385;32;20128;-68
2022/01/24 05:27:48;;;;;;;0.50;0.50;;;6.70;99.90;;;;;;4440665;32;20089;-68
2022/01/24 05:30:16;;;;;;;0.62;0.62;;;6.60;99.90;;;;;;4442472;32;20107;-68
2022/01/24 05:32:42;;;;;;;0.50;0.50;;;6.60;99.90;;;;;;4441829;32;20077;-68
2022/01/24 05:35:08;;;;;;;0.75;0.60;;;6.60;99.90;;;;;;4438985;32;20081;-70
2022/01/24 05:37:33;;;;;;;0.60;0.60;;;6.50;99.90;;;;;;4439418;32;20088;-68
2022/01/24 05:39:59;;;;;;;5.50;2.33;;;6.60;99.90;;;;;;4437725;32;20052;-68
2022/01/24 05:42:25;;;;;;;3.00;0.77;;;6.60;99.90;;;;;;4438213;32;20069;-68
2022/01/24 05:44:52;;;;;;;3.00;1.45;;;6.60;99.90;;;;;;4439253;32;20088;-67
2022/01/24 05:47:18;;;;;;;0.40;0.40;;;6.60;99.90;;;;;;4426073;32;20065;-68
2022/01/24 05:49:43;;;;;;;0.75;0.55;;;6.60;99.90;;;;;;4438261;32;20077;-68
2022/01/24 05:52:10;;;;;;;2.58;0.82;;;6.50;99.90;;;;;;4438023;32;20552;-68
2022/01/24 05:54:37;;;;;;;0.50;0.50;;;6.50;99.90;;;;;;4438020;32;20553;-68
2022/01/24 05:57:03;;;;;;;5.68;0.70;;;6.50;99.90;;;;;;4437046;32;20106;-68
2022/01/24 05:59:29;;;;;;;1.17;0.80;;;6.50;99.90;;;;;;4437236;32;20064;-68
2022/01/24 06:01:54;;;;;;;0.40;0.40;;;6.50;99.90;;;;;;4432078;32;20391;-68
2022/01/24 06:04:21;;;;;;;1.60;1.08;;;6.60;99.90;;;;;;4436902;32;20482;-68
2022/01/24 06:06:47;;;;;;;0.62;0.62;;;6.50;99.90;;;;;;4440180;32;20085;-68
2022/01/24 06:09:12;;;;;;;1.77;0.90;;;6.50;99.90;;;;;;4443974;32;20065;-68
2022/01/24 06:11:38;;;;;;;1.60;1.25;;;6.50;99.90;;;;;;4439406;32;20077;-68
2022/01/24 06:14:04;;;;;;;4.25;0.90;;;6.50;99.90;;;;;;4441112;32;20065;-68
2022/01/24 06:16:29;;;;;;;0.93;0.90;;;6.50;99.90;;;;;;4439033;32;20096;-68
2022/01/24 06:18:55;;;;;;;0.60;0.60;;;6.50;99.90;;;;;;4428654;32;20078;-68
2022/01/24 06:21:21;;;;;;;0.40;0.40;;;6.50;99.90;;;;;;4442040;32;20061;-68
2022/01/24 06:23:46;;;;;;;0.57;0.57;;;6.50;99.90;;;;;;4442004;32;20073;-68
2022/01/24 06:26:13;;;;;;;0.70;0.70;;;6.60;99.90;;;;;;4430132;32;20467;-68
2022/01/24 06:28:39;;;;;;;0.50;0.50;;;6.60;99.90;;;;;;4430561;32;20080;-68
2022/01/24 06:31:06;;;;;;;0.50;0.50;;;6.50;99.90;;;;;;4421195;32;20439;-67
2022/01/24 06:33:33;;;;;;;0.47;0.47;;;6.50;99.90;;;;;;4425380;32;20141;-67
2022/01/24 06:36:00;;;;;;;8.38;1.40;;;6.40;99.90;;;;;;4423560;32;20098;-67
2022/01/24 06:38:26;;;;;;;0.50;0.50;;;6.40;99.90;;;;;;4420583;32;20127;-67
2022/01/24 06:40:52;;;;;;;0.40;0.40;;;6.40;99.90;;;;;;4413763;32;20078;-68
2022/01/24 06:43:18;;;;;;;0.65;0.65;;;6.50;99.90;;;;;;4439396;32;20065;-68
2022/01/24 06:45:45;;;;;;;0.43;0.43;;;6.50;99.90;;;;;;4439242;32;20185;-68
2022/01/24 06:48:11;;;;;;;6.55;1.00;;;6.50;99.90;;;;;;4442594;32;20076;-68
2022/01/24 06:50:36;;;;;;;2.65;0.82;;;6.50;99.90;;;;;;4432716;32;20097;-69
2022/01/24 06:53:02;;;;;;;0.82;0.82;;;6.40;99.90;;;;;;4433177;32;20150;-69
2022/01/24 06:55:28;;;;;;;0.93;0.55;;;6.50;99.90;;;;;;4429631;32;20093;-68
2022/01/24 06:57:53;;;;;;;0.30;0.30;;;6.40;99.90;;;;;;4424934;32;20537;-68
2022/01/24 07:00:25;;;;;;;0.68;0.68;;;6.40;99.90;;;;;;4426802;32;20080;-69
2022/01/24 07:02:52;;;;;;;0.57;0.57;;;6.50;99.90;;;;;;4426365;32;20073;-68
2022/01/24 07:05:17;;;;;;;0.40;0.40;;;6.50;99.90;;;;;;4423295;32;20621;-68
2022/01/24 07:07:43;;;;;;;0.65;0.65;;;6.40;99.90;;;;;;4415620;32;20101;-67
2022/01/24 07:10:08;;;;;;;0.45;0.45;;;6.40;99.90;;;;;;4423067;32;20738;-67
2022/01/24 07:12:34;;;;;;;0.55;0.55;;;6.50;99.90;;;;;;4420132;32;20089;-68
2022/01/24 07:15:06;;;;;;;6.18;0.70;;;6.40;99.90;;;;;;4422010;32;20093;-68
2022/01/24 07:17:56;;;;;;;0.50;0.50;;;6.40;99.90;;;;;;4421885;32;20119;-68
2022/01/24 07:20:17;;;;;;;0.50;0.50;;;6.40;99.90;;;;;;4407751;32;20638;-68
2022/01/24 07:22:43;;;;;;;0.88;0.82;;;6.40;99.90;;;;;;4394971;32;20117;-68
2022/01/24 07:25:09;;;;;;;2.08;0.90;;;6.40;99.90;;;;;;4416948;32;20112;-69
2022/01/24 07:27:35;;;;;;;0.40;0.40;;;6.40;99.90;;;;;;4404454;32;20196;-69
2022/01/24 07:30:01;;;;;;;0.40;0.40;;;6.50;99.90;;;;;;4419970;32;20212;-69
2022/01/24 07:32:28;;;;;;;10.43;0.90;;;6.40;99.90;;;;;;4420030;32;20208;-68
2022/01/24 07:34:54;;;;;;;0.47;0.47;;;6.40;99.90;;;;;;4415142;32;20089;-69
2022/01/24 07:37:21;;;;;;;0.55;0.55;;;6.50;99.90;;;;;;4417398;32;20896;-69
2022/01/24 07:39:47;;;;;;;1.70;1.23;;;6.50;99.90;;;;;;4404809;32;20089;-69
2022/01/24 07:42:16;;;;;;;1.08;0.60;;;6.40;99.90;;;;;;4417741;32;20085;-69
2022/01/24 07:44:42;;;;;;;0.50;0.50;;;6.40;99.90;;;;;;4420972;32;20570;-67
2022/01/24 07:47:08;;;;;;;0.65;0.65;;;6.30;99.90;;;;;;4419731;32;20069;-68
2022/01/24 07:49:34;;;;;;;0.60;0.43;;;6.30;99.90;;;;;;4425457;32;20158;-69
2022/01/24 07:52:00;;;;;;;0.50;0.50;;;6.40;99.90;;;;;;4429249;32;20101;-69
2022/01/24 07:54:26;;;;;;;0.32;0.32;;;6.40;99.90;;;;;;4423549;32;20061;-69
2022/01/24 07:56:52;;;;;;;3.62;1.05;;;6.40;99.90;;;;;;4417805;32;20096;-69
2022/01/24 07:59:19;;;;;;;0.40;0.40;;;6.50;99.90;;;;;;4420996;32;20106;-69
2022/01/24 08:01:45;;;;;;;0.40;0.40;;;6.50;99.90;;;;;;4422647;32;20557;-69
2022/01/24 08:04:11;;;;;;;1.35;0.70;;;6.60;99.90;;;;;;4420617;32;20081;-69
2022/01/24 08:06:36;;;;;;;0.90;0.50;;;6.60;99.90;;;;;;4414114;32;20088;-69
2022/01/24 08:09:02;;;;;;;1.77;1.08;;;6.50;99.90;;;;;;4418636;32;20211;-69
2022/01/24 08:11:27;;;;;;;0.82;0.82;;;6.60;99.90;;;;;;4416853;32;20578;-69
2022/01/24 08:13:54;;;;;;;4.55;0.75;;;6.60;99.90;;;;;;4416929;32;20114;-69
2022/01/24 08:16:21;;;;;;;0.62;0.60;;;6.60;99.90;;;;;;4416320;32;20097;-69
2022/01/24 08:18:51;;;;;;;0.73;0.62;;;6.50;99.90;;;;;;4415645;32;20474;-69
2022/01/24 08:21:17;;;;;;;0.50;0.50;;;6.50;99.90;;;;;;4417751;32;20108;-69
2022/01/24 08:23:42;;;;;;;0.57;0.57;;;6.60;99.90;;;;;;4410267;32;20114;-69
2022/01/24 08:26:08;;;;;;;0.60;0.60;;;6.60;99.90;;;;;;4417130;32;20116;-69
2022/01/24 08:28:34;;;;;;;0.57;0.57;;;6.60;99.90;;;;;;4421109;32;20351;-69
2022/01/24 08:31:00;;;;;;;0.37;0.37;;;6.70;99.90;;;;;;4417413;32;20084;-69
2022/01/24 08:33:26;;;;;;;0.73;0.73;;;6.70;99.90;;;;;;4425515;32;20066;-69
2022/01/24 08:35:52;;;;;;;0.55;0.55;;;6.60;99.90;;;;;;4423746;32;20084;-67
2022/01/24 08:38:18;;;;;;;0.60;0.57;;;6.80;99.90;;;;;;4430350;32;20192;-67
2022/01/24 08:40:47;;;;;;;0.37;0.37;;;7.00;99.90;;;;;;4426649;32;20203;-67
2022/01/24 08:43:12;;;;;;;2.33;0.77;;;7.00;99.90;;;;;;4424893;32;20129;-68
2022/01/24 08:45:58;;;;;;;0.43;0.43;;;7.00;99.90;;;;;;4425048;32;20089;-69
2022/01/24 08:48:24;;;;;;;0.40;0.40;;;7.10;99.90;;;;;;4422590;32;20659;-68
2022/01/24 08:50:53;;;;;;;0.60;0.60;;;7.10;99.90;;;;;;4397754;32;20106;-68
2022/01/24 08:53:19;;;;;;;0.37;0.37;;;7.10;99.90;;;;;;4390196;32;20121;-67
2022/01/24 08:55:45;;;;;;;1.05;0.60;;;7.10;99.90;;;;;;4402954;32;20748;-67
2022/01/24 08:58:14;;;;;;;0.40;0.40;;;7.00;99.90;;;;;;4414433;32;20069;-66
2022/01/24 09:00:43;;;;;;;0.50;0.50;;;7.00;99.90;;;;;;4402470;32;20089;-67
2022/01/24 09:03:10;;;;;;;0.40;0.40;;;6.90;99.90;;;;;;4407125;32;20923;-69
2022/01/24 09:05:36;;;;;;;0.30;0.30;;;6.90;99.90;;;;;;4412942;32;20502;-67
2022/01/24 09:08:04;;;;;;;1.20;0.57;;;6.90;99.90;;;;;;4412049;32;20089;-68
2022/01/24 09:10:30;;;;;;;0.52;0.52;;;6.90;99.90;;;;;;4403808;32;20156;-67
2022/01/24 09:12:55;;;;;;;0.45;0.45;;;7.00;99.90;;;;;;4411749;32;20097;-67
2022/01/24 09:15:21;;;;;;;0.37;0.37;;;7.10;99.90;;;;;;4406681;32;21513;-67
2022/01/24 09:17:47;;;;;;;0.30;0.30;;;7.20;99.90;;;;;;4401922;32;20088;-66
2022/01/24 09:20:14;;;;;;;0.37;0.37;;;7.30;99.90;;;;;;4402838;32;20101;-66
2022/01/24 09:22:40;;;;;;;0.30;0.30;;;7.30;99.90;;;;;;4386522;32;20204;-66
2022/01/24 09:25:10;;;;;;;0.57;0.57;;;7.30;99.90;;;;;;4397368;32;20100;-66
2022/01/24 09:27:37;;;;;;;0.50;0.50;;;7.30;99.90;;;;;;4401803;32;21144;-68
2022/01/24 09:30:03;;;;;;;0.30;0.30;;;7.30;99.90;;;;;;4396428;32;20317;-68
2022/01/24 09:32:29;;;;;;;0.40;0.40;;;7.30;99.90;;;;;;4401677;32;20072;-68
2022/01/24 09:34:54;;;;;;;0.80;0.40;;;7.20;99.90;;;;;;4403380;32;20093;-70
2022/01/24 09:37:20;;;;;;;1.27;0.50;;;7.20;99.90;;;;;;4401414;32;20065;-69
2022/01/24 09:39:46;;;;;;;0.30;0.30;;;7.20;99.90;;;;;;4401019;32;20320;-69
2022/01/24 09:42:11;;;;;;;0.47;0.47;;;7.30;99.90;;;;;;4393488;32;20181;-69
2022/01/24 09:44:37;;;;;;;1.60;0.62;;;7.40;99.90;;;;;;4400786;32;20084;-69
2022/01/24 09:47:02;;;;;;;0.32;0.32;;;7.40;99.90;;;;;;4405944;32;20093;-69
2022/01/24 09:49:28;;;;;;;0.68;0.55;;;7.40;99.90;;;;;;4410839;32;20072;-69
2022/01/24 09:51:54;;;;;;;1.65;1.15;;;7.30;99.90;;;;;;4409626;32;20089;-68
2022/01/24 09:54:19;;;;;;;0.40;0.40;;;7.30;99.90;;;;;;4398928;32;21066;-69
2022/01/24 09:56:45;;;;;;;0.30;0.30;;;7.40;99.90;;;;;;4399708;32;20069;-70
2022/01/24 09:59:11;;;;;;;0.57;0.57;;;7.40;99.90;;;;;;4405166;32;20103;-68
2022/01/24 10:01:37;;;;;;;0.30;0.30;;;7.40;99.90;;;;;;4412015;32;20076;-71
2022/01/24 10:04:06;;;;;;;0.30;0.30;;;7.40;99.90;;;;;;4404111;32;20085;-68
2022/01/24 10:07:00;;;;;;;0.40;0.40;;;7.40;99.90;;;;;;4401641;32;20090;-69
2022/01/24 10:09:48;;;;;;;0.30;0.30;;;7.30;99.90;;;;;;4407102;32;20073;-69
2022/01/24 10:12:32;;;;;;;0.43;0.43;;;7.30;99.90;;;;;;4419464;32;20158;-69
2022/01/24 10:17:01;;;;;;;0.45;0.45;;;7.30;99.90;;;;;;4416572;32;20089;-68
2022/01/24 10:17:46;;;;;;;0.32;0.32;;;7.20;99.90;;;;;;4408600;32;20180;-70
2022/01/24 10:20:31;;;;;;;0.62;0.62;;;7.10;99.90;;;;;;4406345;32;21158;-70
2022/01/24 10:23:20;;;;;;;1.30;0.30;;;7.10;99.90;;;;;;4409384;32;21117;-69
2022/01/24 10:25:53;;;;;;;0.68;0.55;;;7.10;99.90;;;;;;4403459;32;20353;-70
2022/01/24 10:28:25;;;;;;;1.45;0.40;;;7.30;99.90;;;;;;4395298;32;20150;-68
2022/01/24 10:31:02;;;;;;;0.55;0.55;;;7.40;99.90;;;;;;4400016;32;20137;-68
2022/01/24 10:33:28;;;;;;;0.68;0.68;;;7.40;99.90;;;;;;4395457;32;20745;-68
2022/01/24 10:35:53;;;;;;;0.30;0.30;;;7.50;99.90;;;;;;4397581;32;20093;-68
2022/01/24 10:38:34;;;;;;;0.62;0.62;;;7.50;99.90;;;;;;4408336;32;20085;-68
2022/01/24 10:41:11;;;;;;;0.50;0.50;;;7.70;99.90;;;;;;4399530;32;20101;-68
2022/01/24 10:43:39;;;;;;;1.87;1.27;;;7.60;99.90;;;;;;4397622;32;20176;-68
2022/01/24 10:46:06;;;;;;;0.50;0.50;;;7.70;99.90;;;;;;4410134;32;20150;-69
2022/01/24 10:48:39;;;;;;;2.95;0.50;;;7.70;99.90;;;;;;4410864;32;20193;-69
2022/01/24 10:51:09;;;;;;;4.03;0.93;;;7.60;99.90;;;;;;4419439;32;20164;-69
2022/01/24 10:53:40;;;;;;;0.52;0.52;;;7.60;99.90;;;;;;4416148;32;20405;-69
2022/01/24 10:56:35;;;;;;;0.30;0.30;;;7.70;99.90;;;;;;4409690;32;20068;-69
2022/01/24 10:59:24;;;;;;;0.68;0.60;;;7.70;99.90;;;;;;4412414;32;20135;-69
2022/01/24 11:01:52;;;;;;;0.52;0.52;;;7.70;99.90;;;;;;4407862;32;20053;-68
2022/01/24 11:04:19;;;;;;;0.60;0.45;;;7.80;99.90;;;;;;4389861;32;20188;-67
2022/01/24 11:06:48;;;;;;;1.27;0.80;;;7.90;99.90;;;;;;4402598;32;20949;-66
2022/01/24 11:09:35;;;;;;;0.32;0.32;;;7.90;99.90;;;;;;4411710;32;20096;-69
2022/01/24 11:12:08;;;;;;;0.50;0.50;;;7.90;99.90;;;;;;4398025;32;21033;-67
2022/01/24 11:14:36;;;;;;;0.50;0.50;;;7.90;99.90;;;;;;4405107;32;21169;-67
2022/01/24 11:17:02;;;;;;;0.32;0.32;;;7.90;99.90;;;;;;4405829;32;20084;-68
2022/01/24 11:19:35;;;;;;;0.50;0.50;;;7.90;99.90;;;;;;4407053;32;20093;-69
2022/01/24 11:22:05;;;;;;;5.87;2.15;;;7.80;99.90;;;;;;4410280;32;20178;-69
2022/01/24 11:24:40;;;;;;;0.57;0.57;;;7.70;99.90;;;;;;4420125;32;20117;-68
2022/01/24 11:27:08;;;;;;;0.50;0.50;;;7.70;99.90;;;;;;4420103;32;20077;-68
2022/01/24 11:29:35;;;;;;;1.23;0.57;;;7.60;99.90;;;;;;4426585;32;20077;-67
2022/01/24 11:32:16;;;;;;;0.60;0.60;;;7.60;99.90;;;;;;4423696;32;20078;-67
2022/01/24 11:34:49;;;;;;;0.43;0.43;;;7.40;99.90;;;;;;4427498;32;20110;-67
2022/01/24 11:37:40;;;;;;;0.93;0.50;;;7.40;99.90;;;;;;4417080;32;20097;-69
2022/01/24 11:40:11;;;;;;;1.90;0.52;;;7.30;99.90;;;;;;4414289;32;20077;-68
2022/01/24 11:42:37;;;;;;;0.75;0.75;;;7.30;99.90;;;;;;4424137;32;20081;-67
2022/01/24 11:45:11;;;;;;;0.50;0.50;;;7.30;99.90;;;;;;4420930;32;20614;-69
2022/01/24 11:47:37;;;;;;;0.77;0.60;;;7.30;99.90;;;;;;4418446;32;20117;-68
2022/01/24 11:50:24;;;;;;;0.57;0.57;;;7.30;99.90;;;;;;4419209;32;20080;-69
2022/01/24 11:52:54;;;;;;;0.62;0.60;;;7.30;99.90;;;;;;4411228;32;20624;-72
2022/01/24 11:55:31;;;;;;;1.40;0.50;;;7.30;99.90;;;;;;4412401;32;20089;-69
2022/01/24 11:58:02;;;;;;;0.47;0.47;;;7.20;99.90;;;;;;4414534;32;20922;-69
2022/01/24 12:00:33;;;;;;;0.50;0.50;;;7.10;99.90;;;;;;4411601;32;20100;-70
2022/01/24 12:03:01;;;;;;;;;;;7.10;99.90;;;;;;4409932;32;20093;-69
2022/01/24 12:05:46;;;;;;;0.45;0.45;;;7.00;99.90;;;;;;4414245;32;20052;-70
2022/01/24 12:08:35;;;;;;;0.43;0.43;;;7.10;99.90;;;;;;4421521;32;20486;-70
2022/01/24 12:11:21;;;;;;;0.50;0.50;;;7.10;99.90;;;;;;4411174;32;20524;-69
2022/01/24 12:13:50;;;;;;;13.80;0.75;;;7.10;99.90;;;;;;4408629;32;20109;-68
2022/01/24 12:16:17;;;;;;;0.80;0.50;;;7.10;99.90;;;;;;4412883;32;20104;-70
2022/01/24 12:18:46;;;;;;;1.62;0.60;;;7.10;99.90;;;;;;4407310;32;20126;-69
2022/01/24 12:21:14;;;;;;;0.30;0.30;;;7.10;99.90;;;;;;4413791;32;20097;-70
2022/01/24 12:23:42;;;;;;;0.30;0.30;;;7.10;99.90;;;;;;4417410;32;20092;-69
2022/01/24 12:26:22;;;;;;;0.30;0.30;;;7.20;99.90;;;;;;4420461;32;20089;-69
2022/01/24 12:28:52;;;;;;;0.30;0.30;;;7.10;99.90;;;;;;4413051;32;20524;-69
2022/01/24 12:31:21;;;;;;;0.55;0.55;;;7.00;99.90;;;;;;4418861;32;20159;-69
2022/01/24 12:33:58;;;;;;;0.50;0.50;;;7.00;99.90;;;;;;4414083;32;20125;-70
2022/01/24 12:36:47;;;;;;;0.57;0.57;;;6.90;99.90;;;;;;4413565;32;20198;-69
2022/01/24 12:39:16;;;;;;;0.40;0.40;;;6.90;99.90;;;;;;4414818;32;21048;-68
2022/01/24 12:41:48;;;;;;;0.65;0.65;;;7.00;99.90;;;;;;4419277;32;20097;-70
2022/01/24 12:46:18;;;;;;;0.37;0.37;;;6.90;99.90;;;;;;4419345;32;20589;-70
2022/01/24 12:47:05;;;;;;;0.20;0.20;;;6.90;99.90;;;;;;4431891;32;20402;-69
2022/01/24 12:49:31;;;;;;;0.40;0.40;;;6.90;99.90;;;;;;4423220;32;20856;-70
2022/01/24 12:52:07;;;;;;;0.30;0.30;;;6.80;99.90;;;;;;4426905;32;20304;-70
2022/01/24 12:54:35;;;;;;;0.30;0.30;;;6.70;99.90;;;;;;4426818;32;20492;-70
2022/01/24 12:57:05;;;;;;;0.40;0.40;;;6.80;99.90;;;;;;4425380;32;20085;-69
2022/01/24 12:59:31;;;;;;;0.40;0.35;;;6.80;99.90;;;;;;4428510;32;20637;-69
2022/01/24 13:02:00;;;;;;;0.35;0.35;;;6.80;99.90;;;;;;4427033;32;20101;-69
2022/01/24 13:04:35;;;;;;;0.40;0.40;;;6.70;99.90;;;;;;4425070;32;20132;-69
2022/01/24 13:07:01;;;;;;;0.50;0.50;;;6.70;99.90;;;;;;4428101;32;20101;-69
2022/01/24 13:09:27;;;;;;;0.40;0.40;;;6.60;99.90;;;;;;4425129;32;20353;-69
2022/01/24 13:12:01;;;;;;;0.40;0.40;;;6.60;99.90;;;;;;4426966;32;20080;-69
2022/01/24 13:14:49;;;;;;;0.40;0.40;;;6.60;99.90;;;;;;4424580;32;20189;-69
2022/01/24 13:21:16;;;;;;;0.30;0.30;;;6.80;99.90;;;;;;4423624;32;20114;-69
2022/01/24 13:23:10;;;;;;;0.40;0.40;;;6.70;99.90;;;;;;4425096;32;20382;-70
2022/01/24 13:25:39;;;;;;;6.87;0.73;;;6.70;99.90;;;;;;4423791;32;20092;-69
2022/01/24 13:28:13;;;;;;;0.40;0.40;;;6.60;99.90;;;;;;4425819;32;20088;-69
2022/01/24 13:30:42;;;;;;;0.30;0.30;;;6.70;99.90;;;;;;4420862;32;20176;-69
2022/01/24 13:33:11;;;;;;;0.40;0.40;;;6.60;99.90;;;;;;4421606;32;20088;-69
2022/01/24 13:35:39;;;;;;;0.47;0.47;;;6.60;99.90;;;;;;4418023;32;20104;-68
2022/01/24 13:38:10;;;;;;;0.30;0.30;;;6.60;99.90;;;;;;4411945;32;20097;-68
2022/01/24 13:40:55;;;;;;;0.57;0.57;;;6.60;99.90;;;;;;4416612;32;20089;-67
2022/01/24 13:43:34;;;;;;;0.30;0.30;;;6.50;99.90;;;;;;4425417;32;20805;-70
2022/01/24 13:46:02;;;;;;;0.30;0.30;;;6.50;99.90;;;;;;4428500;32;20073;-68
2022/01/24 13:48:27;;;;;;;0.50;0.50;;;6.50;99.90;;;;;;4428705;32;20081;-68
2022/01/24 13:50:56;;;;;;;0.90;0.50;;;6.50;99.90;;;;;;4427536;32;20595;-68
2022/01/24 13:53:39;;;;;;;0.30;0.30;;;6.40;99.90;;;;;;4430180;32;20107;-68
2022/01/24 13:56:27;;;;;;;0.20;0.20;;;6.40;99.90;;;;;;4428931;32;20413;-69
2022/01/24 13:59:01;;;;;;;0.52;0.52;;;6.50;99.90;;;;;;4423666;32;20377;-68